Tiempo atmosférico en la estación meteorológica de Ossa De Montiel, Albacete (905 m.)



Fecha
DESCASC
Temp. máxima en grados centígrados (hora)
DESCASC
Temp. mínima en grados centígrados (hora)
DESCASC
Temp. media en grados centígrados
DESCASC
Racha de viento máxima en m/sg (hora)
DESCASC
Velocidad máxima media en intervalos de 10 minutos(hora)
DESCASC
Precipitaciones diarias en mm
DESCASC
Precipitaciones de 00:00 a 06:00 en mm
DESCASC
Precipitaciones de 06:00 a 12:00 en mm
DESCASC
Precipitaciones de 12:00 a 18:00 en mm
DESCASC
Precipitaciones de 18:00 a 24:00 en mm
DESCASC
17-10-2019 20.5 (16:00) 4.8 (08:00) 12.7 7.78 (12:50) 3.89 (13:30) 0 0 0 0 0
16-10-2019 20.6 (15:50) 3.6 (08:40) 12.1 6.94 (16:30) 3.33 (16:30) 0 0 0 0 0
15-10-2019 16.2 (15:40) 7.3 (08:40) 11.8 6.11 (06:40) 2.78 (00:40) 0 0 0 0 0
14-10-2019 20.8 (16:20) 9.4 (23:30) 15.1 14.72 (08:20) 8.89 (08:20) 2.8 0 0.2 0 2.6
13-10-2019 27.2 (15:30) 12.7 (00:00) 20 13.06 (15:50) 6.39 (16:10) 0 0 0 0 0
12-10-2019 27.3 (15:20) 15 (00:00) 21.1 5.83 (19:00) 3.06 (17:40) 0 0 0 0 0
11-10-2019 29 (15:00) 14.2 (00:00) 21.6 5.56 (17:30) 2.78 (15:20) 0 0 0 0 0
10-10-2019 30.5 (15:20) 14.4 (00:00) 22.4 6.67 (17:10) 3.89 (17:10) 0 0 0 0 0
09-10-2019 30.7 (14:20) 13.3 (00:00) 22 5.83 (14:50) 2.22 (15:30) 0 0 0 0 0
08-10-2019 30.3 (14:50) 12.2 (00:00) 21.2 6.11 (17:00) 3.61 (17:00) 0 0 0 0 0
07-10-2019 26.3 (15:50) 10 (00:00) 18.1 7.78 (15:10) 4.17 (14:20) 0 0 0 0 0
06-10-2019 27.6 (16:00) 10 (00:00) 18.8 5.83 (14:50) 2.22 (17:40) 0 0 0 0 0
05-10-2019 28.7 (15:10) 10.5 (00:00) 19.6 6.67 (17:10) 3.06 (16:10) 0 0 0 0 0
04-10-2019 28.7 (16:10) 9.6 (00:00) 19.2 5 (17:30) 2.5 (16:40) 0 0 0 0 0
03-10-2019 24.5 (16:30) 8 (00:00) 16.3 6.67 (12:30) 2.5 (13:00) 0 0 0 0 0
02-10-2019 22.8 (14:40) 9.8 (00:00) 16.3 7.78 (17:10) 4.17 (17:50) 0 0 0 0 0
01-10-2019 27.5 (15:40) 13.3 (00:00) 20.4 9.72 (16:40) 4.72 (15:10) 0 0 0 0 0
30-09-2019 30.8 (15:40) 11.9 (00:00) 21.3 6.11 (16:40) 3.61 (15:50) 0 0 0 0 0
29-09-2019 30.3 (14:50) 12.2 (00:00) 21.2 8.06 (16:00) 3.89 (14:40) 0 0 0 0 0
28-09-2019 30.1 (14:30) 11.7 (00:00) 20.9 5.56 (17:00) 3.33 (18:30) 0 0 0 0 0
27-09-2019 29.3 (15:50) 11.8 (00:00) 20.5 7.22 (14:40) 3.33 (17:20) 0 0 0 0 0
26-09-2019 28.7 (16:00) 11.6 (00:00) 20.2 5.83 (15:30) 2.5 (15:30) 0 0 0 0 0
25-09-2019 25.1 (15:50) 15.5 (00:00) 20.3 7.22 (13:50) 3.33 (13:20) 0 0 0 0 0
24-09-2019 27.3 (16:00) 9.9 (00:00) 18.6 7.78 (18:00) 3.89 (15:50) 0 0 0 0 0
23-09-2019 23.7 (16:30) 8.7 (00:00) 16.2 5.28 (17:10) 2.78 (17:10) 0 0 0 0 0
22-09-2019 21.9 (15:40) 13.5 (00:00) 17.7 10 (14:20) 5.28 (15:00) 0 0 0 0 0
21-09-2019 22 (17:40) 14.2 (00:00) 18.1 8.61 (15:50) 4.72 (16:30) 18 17.8 0 0 0.2
20-09-2019 25.3 (15:00) 11.3 (00:00) 18.3 16.39 (18:40) 7.22 (18:50) 84.6 0 0 9 75.6

Gráficas

Temp. máximas Temp. mínimas Temp. medias Precipitaciones Rachas de viento máximas Velocidades máximas media en intervalos de 10 minutos

Datos horarios

Fecha y hora oficial Temperatura (ºC) Velocidad del viento (km/h) Dirección del viento Racha (km/h) Dirección de racha Precipitación (mm) Presión (hPa) Tendencia (hPa) Humedad (%)
2019-10-19 23:00:00 15.1 10 Sudoeste 21 Oeste 0 -- -- 69
2019-10-19 22:00:00 14.7 8 Sudoeste 29 Sudoeste 0 -- -- 68
2019-10-19 21:00:00 15.5 8 Sudoeste 22 Oeste 0 -- -- 65
2019-10-19 20:00:00 15.9 10 Oeste 32 Oeste 0 -- -- 62
2019-10-19 19:00:00 17.1 18 Oeste 47 Oeste 0 -- -- 57
2019-10-19 18:00:00 18.8 22 Oeste 44 Oeste 0 -- -- 52
2019-10-19 17:00:00 19.2 23 Oeste 43 Oeste 0 -- -- 52
2019-10-19 16:00:00 18.5 21 Oeste 40 Oeste 0 -- -- 58
2019-10-19 15:00:00 18.6 22 Oeste 40 Oeste 0 -- -- 59
2019-10-19 14:00:00 17.6 18 Oeste 34 Oeste 0 -- -- 65
2019-10-19 13:00:00 18 19 Oeste 35 Oeste 0 -- -- 65
2019-10-19 12:00:00 16.6 18 Oeste 33 Oeste 0 -- -- 70
2019-10-19 11:00:00 15.3 17 Oeste 30 Oeste 0 -- -- 80
2019-10-19 10:00:00 14 14 Oeste 24 Oeste 0 -- -- 87
2019-10-19 09:00:00 13.2 10 Oeste 21 Oeste 0 -- -- 91
2019-10-19 08:00:00 12.7 11 Oeste 19 Oeste 0 -- -- 92
2019-10-19 07:00:00 12.7 12 Oeste 26 Oeste 0 -- -- 91
2019-10-19 06:00:00 12.8 13 Oeste 23 Oeste 0 -- -- 91
2019-10-19 05:00:00 12.4 8 Oeste 17 Oeste 0 -- -- 93
2019-10-19 04:00:00 12.9 0 Calma 16 Oeste 0 -- -- 90
2019-10-19 03:00:00 13.8 7 Oeste 22 Oeste 0 -- -- 87
2019-10-19 02:00:00 14.7 11 Oeste 22 Oeste 0 -- -- 84
2019-10-19 01:00:00 15.4 13 Oeste 23 Oeste 0 -- -- 81
2019-10-19 00:00:00 15 5 Sudoeste 12 Sudoeste 0 -- -- 80
2019-10-18 23:00:00 13.8 3 Sudoeste 7 Oeste 0 -- -- 80
2019-10-18 22:00:00 14.6 4 Sudoeste 9 Sudoeste 0 -- -- 76
2019-10-18 21:00:00 16.3 8 Oeste 14 Oeste 0 -- -- 70
2019-10-18 20:00:00 17.8 8 Oeste 20 Oeste 0 -- -- 64
2019-10-18 19:00:00 19.8 9 Oeste 24 Oeste 0 -- -- 53
2019-10-18 18:00:00 20.9 13 Oeste 28 Oeste 0 -- -- 51
2019-10-18 17:00:00 21.1 12 Oeste 29 Oeste 0 -- -- 52
2019-10-18 16:00:00 21.2 12 Noroeste 31 Sudoeste 0 -- -- 53
2019-10-18 15:00:00 21 18 Oeste 30 Oeste 0 -- -- 53
2019-10-18 14:00:00 21.6 16 Oeste 30 Noroeste 0 -- -- 49
2019-10-18 13:00:00 20.5 14 Oeste 30 Oeste 0 -- -- 55
2019-10-18 12:00:00 19.5 13 Oeste 23 Oeste 0 -- -- 57
2019-10-18 11:00:00 16.6 6 Oeste 14 Sudoeste 0 -- -- 55
2019-10-18 10:00:00 12 4 Sudoeste 7 Sudoeste 0 -- -- 64
2019-10-18 09:00:00 10.2 2 Sur 10 Sudoeste 0 -- -- 67
2019-10-18 08:00:00 10 3 Sudoeste 6 Sur 0 -- -- 67
2019-10-18 07:00:00 9.7 2 Sur 5 Sur 0 -- -- 67
2019-10-18 06:00:00 9.7 0 Calma 5 Sudeste 0 -- -- 68
2019-10-18 05:00:00 9.6 2 Sudeste 7 Sur 0 -- -- 71
2019-10-18 04:00:00 9.8 3 Sudeste 6 Sudeste 0 -- -- 70
2019-10-18 03:00:00 9.9 2 Sudeste 4 Sur 0 -- -- 70
2019-10-18 02:00:00 10.2 3 Sur 5 Sur 0 -- -- 68
2019-10-18 01:00:00 10.5 0 Calma 5 Sudeste 0 -- -- 68
2019-10-18 00:00:00 11.4 0 Calma 5 Sudoeste 0 -- -- 66
2019-10-17 23:00:00 12.3 3 Sudoeste 5 Sudoeste 0 -- -- 66
2019-10-17 22:00:00 13.1 0 Calma 2 Nordeste 0 -- -- 69
2019-10-17 21:00:00 14.6 0 Calma 8 Oeste 0 -- -- 63
2019-10-17 20:00:00 16.5 4 Oeste 15 Oeste 0 -- -- 57
2019-10-17 19:00:00 18.7 8 Noroeste 19 Oeste 0 -- -- 47
2019-10-17 18:00:00 19.6 9 Oeste 22 Noroeste 0 -- -- 43
2019-10-17 17:00:00 20.1 9 Noroeste 26 Oeste 0 -- -- 43
2019-10-17 16:00:00 20.5 10 Noroeste 24 Oeste 0 -- -- 41
2019-10-17 15:00:00 19.3 12 Oeste 24 Noroeste 0 -- -- 39
2019-10-17 14:00:00 18.5 9 Noroeste 27 Noroeste 0 -- -- 38
2019-10-17 13:00:00 17.8 12 Noroeste 28 Noroeste 0 -- -- 42
2019-10-17 12:00:00 18 9 Noroeste 23 Noroeste 0 -- -- 42
2019-10-17 11:00:00 16.3 8 Noroeste 15 Noroeste 0 -- -- 47
2019-10-17 10:00:00 11.5 0 Calma 4 Sur 0 -- -- 56
2019-10-17 09:00:00 5.3 0 Calma 2 Sudeste 0 -- -- 77
2019-10-17 08:00:00 4.8 0 Calma 2 Sudeste 0 -- -- 76
2019-10-17 07:00:00 5.1 0 Calma 3 Sudeste 0 -- -- 73
2019-10-17 06:00:00 5.3 0 Calma 4 Sudeste 0 -- -- 71
2019-10-17 05:00:00 5.5 2 Sudeste 4 Sudeste 0 -- -- 72
2019-10-17 04:00:00 6.6 0 Calma 2 Sur 0 -- -- 72
2019-10-17 03:00:00 6.9 0 Calma 2 Este 0 -- -- 69
2019-10-17 02:00:00 8.3 0 Calma 4 Sudeste 0 -- -- 66
2019-10-17 01:00:00 8.8 0 Calma 2 Sudeste 0 -- -- 64
2019-10-17 00:00:00 9.2 0 Calma 5 Sudoeste 0 -- -- 62
2019-10-16 23:00:00 11 3 Sudoeste 6 Sudoeste 0 -- -- 52
2019-10-16 22:00:00 12.6 0 Calma 3 Oeste 0 -- -- 48
2019-10-16 21:00:00 13.4 0 Calma 7 Norte 0 -- -- 42
2019-10-16 20:00:00 15.8 3 Noroeste 12 Noroeste 0 -- -- 35
2019-10-16 19:00:00 17.9 7 Oeste 17 Oeste 0 -- -- 27
2019-10-16 18:00:00 18.7 8 Oeste 18 Noroeste 0 -- -- 24
2019-10-16 17:00:00 20.1 6 Oeste 25 Oeste 0 -- -- 26
2019-10-16 16:00:00 20.5 9 Oeste 18 Oeste 0 -- -- 30
2019-10-16 15:00:00 19.7 6 Oeste 19 Noroeste 0 -- -- 32
2019-10-16 14:00:00 18.7 7 Noroeste 20 Noroeste 0 -- -- 36
2019-10-16 13:00:00 17.8 6 Noroeste 17 Oeste 0 -- -- 38
2019-10-16 12:00:00 16.2 6 Oeste 15 Noroeste 0 -- -- 46
2019-10-16 11:00:00 13.6 4 Sudoeste 8 Sur 0 -- -- 55
2019-10-16 10:00:00 10.4 0 Calma 6 Sudeste 0 -- -- 62
2019-10-16 09:00:00 4.1 0 Calma 5 Sur 0 -- -- 85
2019-10-16 08:00:00 4.1 3 Sudoeste 6 Sur 0 -- -- 82
2019-10-16 07:00:00 3.8 0 Calma 5 Sudeste 0 -- -- 85
2019-10-16 06:00:00 3.8 2 Sudeste 4 Sudeste 0 -- -- 85
2019-10-16 05:00:00 4.4 2 Sudeste 4 Sur 0 -- -- 83
2019-10-16 04:00:00 5.4 0 Calma 3 Sudeste 0 -- -- 81
2019-10-16 03:00:00 6 0 Calma 3 Sur 0 -- -- 80
2019-10-16 02:00:00 7.1 0 Calma 6 Norte 0 -- -- 76
2019-10-16 01:00:00 6.7 0 Calma 3 Sudeste 0 -- -- 81
2019-10-16 00:00:00 7.6 2 Sudeste 3 Sudeste 0 -- -- 78
2019-10-15 23:00:00 8.4 0 Calma 3 Sudeste 0 -- -- 76
2019-10-15 22:00:00 9.5 0 Calma 4 Sudeste 0 -- -- 72
2019-10-15 21:00:00 11.1 0 Calma 6 Oeste 0 -- -- 62
2019-10-15 20:00:00 12.5 4 Oeste 16 Noroeste 0 -- -- 53
2019-10-15 19:00:00 14.3 7 Noroeste 15 Oeste 0 -- -- 47
2019-10-15 18:00:00 14.9 6 Noroeste 15 Oeste 0 -- -- 43
2019-10-15 17:00:00 15.7 6 Noroeste 16 Noroeste 0 -- -- 40
2019-10-15 16:00:00 16.1 7 Oeste 17 Oeste 0 -- -- 41
2019-10-15 15:00:00 15.5 4 Oeste 17 Norte 0 -- -- 43
2019-10-15 14:00:00 14.4 6 Norte 18 Noroeste 0 -- -- 47
2019-10-15 13:00:00 14.1 4 Norte 18 Norte 0 -- -- 48
2019-10-15 12:00:00 12.6 7 Norte 17 Noroeste 0 -- -- 61
2019-10-15 11:00:00 11.4 6 Noroeste 18 Noroeste 0 -- -- 70
2019-10-15 10:00:00 9.4 6 Noroeste 14 Noroeste 0 -- -- 86
2019-10-15 09:00:00 7.6 4 Noroeste 13 Noroeste 0 -- -- 95
2019-10-15 08:00:00 7.4 6 Noroeste 18 Noroeste 0 -- -- 95
2019-10-15 07:00:00 7.6 9 Noroeste 22 Noroeste 0 -- -- 95
2019-10-15 06:00:00 7.7 8 Noroeste 17 Noroeste 0 -- -- 95
2019-10-15 05:00:00 7.9 8 Noroeste 21 Noroeste 0 -- -- 93
2019-10-15 04:00:00 8.3 9 Noroeste 21 Noroeste 0 -- -- 94
2019-10-15 03:00:00 8.3 9 Noroeste 21 Noroeste 0 -- -- 94
2019-10-15 02:00:00 8.3 9 Noroeste 19 Noroeste 0 -- -- 94
2019-10-15 01:00:00 9 7 Noroeste 20 Noroeste 0 -- -- 91
2019-10-15 00:00:00 9.5 9 Noroeste 31 Noroeste 0 -- -- 90
2019-10-14 23:00:00 9.6 11 Noroeste 28 Noroeste 0.4 -- -- 89
2019-10-14 22:00:00 10.3 13 Noroeste 37 Noroeste 1.6 -- -- 91
2019-10-14 21:00:00 11.8 18 Noroeste 43 Noroeste 0.6 -- -- 83
2019-10-14 20:00:00 16.5 19 Oeste 42 Oeste 0 -- -- 52
2019-10-14 19:00:00 17.7 17 Oeste 48 Oeste 0 -- -- 52
2019-10-14 18:00:00 18.5 26 Oeste 46 Oeste 0 -- -- 54
2019-10-14 17:00:00 19.5 26 Oeste 50 Oeste 0 -- -- 49
2019-10-14 16:00:00 20.1 23 Oeste 49 Oeste 0 -- -- 47
2019-10-14 15:00:00 19.2 23 Oeste 48 Oeste 0 -- -- 54
2019-10-14 14:00:00 19.9 22 Oeste 46 Oeste 0 -- -- 55
2019-10-14 13:00:00 20 25 Oeste 45 Oeste 0 -- -- 55
2019-10-14 12:00:00 18.2 18 Oeste 37 Oeste 0 -- -- 71
2019-10-14 11:00:00 17.6 17 Oeste 31 Oeste 0 -- -- 75
2019-10-14 10:00:00 15.5 13 Sudoeste 41 Oeste 0.2 -- -- 82
2019-10-14 09:00:00 17.4 17 Oeste 53 Oeste 0 -- -- 60
2019-10-14 08:00:00 18.8 20 Oeste 41 Oeste 0 -- -- 47
2019-10-14 07:00:00 17.7 4 Sudoeste 16 Sudoeste 0 -- -- 50
2019-10-14 06:00:00 19 11 Oeste 31 Oeste 0 -- -- 45
2019-10-14 05:00:00 15.5 0 Calma 9 Sur 0 -- -- 57
2019-10-14 04:00:00 15.2 3 Este 9 Sudeste 0 -- -- 60
2019-10-14 03:00:00 15.9 3 Sudeste 10 Sudeste 0 -- -- 57
2019-10-14 02:00:00 15.7 0 Calma 6 Sudeste 0 -- -- 60
2019-10-14 01:00:00 16.5 3 Este 6 Este 0 -- -- 59
2019-10-14 00:00:00 16.7 0 Calma 6 Sudeste 0 -- -- 54
2019-10-13 23:00:00 17.2 3 Sudeste 8 Sudeste 0 -- -- 45
2019-10-13 22:00:00 18.1 3 Sudeste 6 Sudeste 0 -- -- 42
2019-10-13 21:00:00 19.9 3 Sudoeste 6 Sur 0 -- -- 38
2019-10-13 20:00:00 22.2 2 Sudoeste 15 Oeste 0 -- -- 33
2019-10-13 19:00:00 24.6 12 Oeste 32 Oeste 0 -- -- 28
2019-10-13 18:00:00 25.8 18 Oeste 39 Oeste 0 -- -- 26
2019-10-13 17:00:00 26.8 18 Oeste 43 Oeste 0 -- -- 25
2019-10-13 16:00:00 26.9 19 Oeste 47 Oeste 0 -- -- 24
2019-10-13 15:00:00 26.9 16 Sudoeste 30 Sudoeste 0 -- -- 25
2019-10-13 14:00:00 26.5 11 Oeste 27 Sudoeste 0 -- -- 32
2019-10-13 13:00:00 25.4 13 Oeste 27 Oeste 0 -- -- 38
2019-10-13 12:00:00 24.7 10 Oeste 19 Oeste 0 -- -- 44
2019-10-13 11:00:00 21 6 Sudoeste 12 Sudoeste 0 -- -- 65
2019-10-13 10:00:00 18.1 5 Sur 11 Sur 0 -- -- 76
2019-10-13 09:00:00 13.7 4 Sur 8 Sur 0 -- -- 91
2019-10-13 08:00:00 13.1 3 Sudeste 6 Este 0 -- -- 88
2019-10-13 07:00:00 13.4 3 Sudeste 5 Sudeste 0 -- -- 86
2019-10-13 06:00:00 14 2 Sur 6 Sudeste 0 -- -- 85
2019-10-13 05:00:00 14.3 4 Sudeste 6 Sudeste 0 -- -- 80
2019-10-13 04:00:00 14.9 2 Sur 6 Sudeste 0 -- -- 76
2019-10-13 03:00:00 15.2 3 Sudeste 7 Sudeste 0 -- -- 74
2019-10-13 02:00:00 15.4 3 Sudeste 8 Sudeste 0 -- -- 75
2019-10-13 01:00:00 15.4 2 Sur 9 Sur 0 -- -- 79
2019-10-13 00:00:00 16.5 2 Sur 11 Sur 0 -- -- 75
2019-10-12 23:00:00 17.3 5 Sur 15 Sur 0 -- -- 71
2019-10-12 22:00:00 18.1 4 Sur 18 Sur 0 -- -- 66
2019-10-12 21:00:00 19.4 8 Sudeste 19 Sudeste 0 -- -- 61
2019-10-12 20:00:00 21.1 11 Sudeste 21 Sudeste 0 -- -- 57
2019-10-12 19:00:00 23.8 9 Sudeste 21 Sudeste 0 -- -- 46
2019-10-12 18:00:00 24.9 8 Este 21 Sudeste 0 -- -- 38
2019-10-12 17:00:00 26.4 9 Sudeste 18 Este 0 -- -- 37
2019-10-12 16:00:00 26.1 7 Este 15 Sudeste 0 -- -- 37
2019-10-12 15:00:00 27 7 Este 18 Nordeste 0 -- -- 38
2019-10-12 14:00:00 25.1 5 Este 10 Este 0 -- -- 41
2019-10-12 13:00:00 25.4 4 Sudeste 13 Sudeste 0 -- -- 39
2019-10-12 12:00:00 23.2 6 Sur 13 Sudeste 0 -- -- 45
2019-10-12 11:00:00 22.7 5 Sudeste 13 Sudeste 0 -- -- 49
2019-10-12 10:00:00 21.5 3 Sur 10 Sur 0 -- -- 51
2019-10-12 09:00:00 15.8 0 Calma 4 Sudeste 0 -- -- 69
2019-10-12 08:00:00 15.4 2 Sur 5 Sur 0 -- -- 72
2019-10-12 07:00:00 15.4 0 Calma 6 Sudeste 0 -- -- 73
2019-10-12 06:00:00 15.4 3 Sudoeste 6 Sur 0 -- -- 73
2019-10-12 05:00:00 15.7 0 Calma 3 Sudeste 0 -- -- 72
2019-10-12 04:00:00 15.6 0 Calma 3 Sudeste 0 -- -- 72
2019-10-12 03:00:00 17 0 Calma 6 Sur 0 -- -- 67
2019-10-12 02:00:00 17.8 2 Sur 6 Sudeste 0 -- -- 65
2019-10-12 01:00:00 18.1 2 Sur 4 Sudeste 0 -- -- 63
2019-10-12 00:00:00 18.8 3 Sudeste 8 Sur 0 -- -- 58
2019-10-11 23:00:00 19.8 3 Sudeste 9 Sudeste 0 -- -- 53
2019-10-11 22:00:00 20.5 3 Sudoeste 14 Oeste 0 -- -- 52
2019-10-11 21:00:00 22.3 7 Oeste 13 Oeste 0 -- -- 46
2019-10-11 20:00:00 23.4 5 Oeste 8 Oeste 0 -- -- 46
2019-10-11 19:00:00 25.3 4 Noroeste 11 Oeste 0 -- -- 40
2019-10-11 18:00:00 26.6 6 Noroeste 20 Noroeste 0 -- -- 34
2019-10-11 17:00:00 27 10 Oeste 18 Oeste 0 -- -- 35
2019-10-11 16:00:00 27.6 4 Sudoeste 18 Sudoeste 0 -- -- 33
2019-10-11 15:00:00 29 3 Oeste 18 Sudoeste 0 -- -- 31
2019-10-11 14:00:00 27.8 3 Noroeste 11 Oeste 0 -- -- 37
2019-10-11 13:00:00 26.5 3 Sudoeste 10 Oeste 0 -- -- 38
2019-10-11 12:00:00 24.4 4 Sudoeste 9 Sudoeste 0 -- -- 45
2019-10-11 11:00:00 22.4 2 Sur 10 Sur 0 -- -- 53
2019-10-11 10:00:00 18 6 Sur 12 Sur 0 -- -- 70
2019-10-11 09:00:00 14.5 2 Sudoeste 5 Sudoeste 0 -- -- 80
2019-10-11 08:00:00 14.5 2 Sur 5 Sudeste 0 -- -- 80
2019-10-11 07:00:00 14.8 0 Calma 9 Sur 0 -- -- 81
2019-10-11 06:00:00 15.3 2 Sur 9 Sur 0 -- -- 81
2019-10-11 05:00:00 15.4 4 Sudeste 14 Sur 0 -- -- 83
2019-10-11 04:00:00 15.7 3 Sudeste 9 Sur 0 -- -- 82
2019-10-11 03:00:00 16.1 3 Sur 11 Sur 0 -- -- 81
2019-10-11 02:00:00 16.4 3 Sur 9 Sur 0 -- -- 80
2019-10-11 01:00:00 17.2 3 Sur 6 Sur 0 -- -- 76
2019-10-11 00:00:00 17.9 3 Sur 8 Sur 0 -- -- 74
2019-10-10 23:00:00 18.5 4 Sur 13 Sudeste 0 -- -- 71
2019-10-10 22:00:00 19.7 4 Sur 15 Sur 0 -- -- 68
2019-10-10 21:00:00 21.2 6 Sudeste 15 Este 0 -- -- 63
2019-10-10 20:00:00 22.6 6 Este 22 Este 0 -- -- 59
2019-10-10 19:00:00 24.9 11 Este 23 Este 0 -- -- 51
2019-10-10 18:00:00 26.2 11 Este 24 Nordeste 0 -- -- 48
2019-10-10 17:00:00 27.5 9 Este 20 Este 0 -- -- 42
2019-10-10 16:00:00 29.5 7 Nordeste 20 Oeste 0 -- -- 37
2019-10-10 15:00:00 30 9 Oeste 19 Oeste 0 -- -- 32
2019-10-10 14:00:00 28.2 5 Sur 14 Sudoeste 0 -- -- 37
2019-10-10 13:00:00 27.5 5 Sudoeste 12 Oeste 0 -- -- 40
2019-10-10 12:00:00 24.8 8 Sur 18 Sur 0 -- -- 49
2019-10-10 11:00:00 22 8 Sur 20 Sur 0 -- -- 61
2019-10-10 10:00:00 19.4 5 Sur 10 Sudeste 0 -- -- 71
2019-10-10 09:00:00 15 3 Sudeste 11 Sudeste 0 -- -- 90
2019-10-10 08:00:00 14.5 5 Sur 12 Sudeste 0 -- -- 90
2019-10-10 07:00:00 14.6 4 Sudeste 12 Sudeste 0 -- -- 90
2019-10-10 06:00:00 14.8 4 Sur 8 Sur 0 -- -- 86
2019-10-10 05:00:00 15.1 3 Sur 8 Sur 0 -- -- 83
2019-10-10 04:00:00 15.5 4 Sur 9 Sudeste 0 -- -- 77
2019-10-10 03:00:00 15.9 3 Sudeste 6 Sudeste 0 -- -- 61
2019-10-10 02:00:00 16.4 2 Sudeste 5 Sudeste 0 -- -- 58
2019-10-10 01:00:00 16.7 3 Sudeste 5 Sudeste 0 -- -- 57
2019-10-10 00:00:00 18 0 Calma 6 Sudeste 0 -- -- 54
2019-10-09 23:00:00 18.7 3 Sudeste 8 Sudoeste 0 -- -- 51
2019-10-09 22:00:00 20 0 Calma 2 Este 0 -- -- 49
2019-10-09 21:00:00 21.8 0 Calma 4 Norte 0 -- -- 43
2019-10-09 20:00:00 24.6 2 Noroeste 11 Noroeste 0 -- -- 35
2019-10-09 19:00:00 27.3 4 Noroeste 19 Noroeste 0 -- -- 30
2019-10-09 18:00:00 28.6 3 Noroeste 15 Norte 0 -- -- 28
2019-10-09 17:00:00 29.2 6 Noroeste 19 Noroeste 0 -- -- 27
2019-10-09 16:00:00 30.1 7 Norte 21 Este 0 -- -- 27
2019-10-09 15:00:00 30 4 Norte 21 Norte 0 -- -- 28
2019-10-09 14:00:00 29.8 7 Oeste 17 Oeste 0 -- -- 30
2019-10-09 13:00:00 28.4 5 Oeste 15 Noroeste 0 -- -- 33
2019-10-09 12:00:00 27.4 5 Oeste 13 Sudoeste 0 -- -- 35
2019-10-09 11:00:00 24.2 4 Sudoeste 9 Sur 0 -- -- 46
2019-10-09 10:00:00 20.5 2 Sudeste 5 Sudeste 0 -- -- 54
2019-10-09 09:00:00 14.7 3 Sudeste 8 Sudeste 0 -- -- 71
2019-10-09 08:00:00 13.3 4 Sudeste 6 Sudeste 0 -- -- 76
2019-10-09 07:00:00 14 3 Sudeste 8 Sur 0 -- -- 72
2019-10-09 06:00:00 14.1 3 Sudeste 6 Sur 0 -- -- 72
2019-10-09 05:00:00 14.6 4 Sudeste 8 Sudeste 0 -- -- 72
2019-10-09 04:00:00 15.1 5 Sudeste 9 Sur 0 -- -- 72
2019-10-09 03:00:00 15.3 3 Sudeste 5 Sudeste 0 -- -- 78
2019-10-09 02:00:00 15.7 3 Sudeste 6 Sudeste 0 -- -- 78
2019-10-09 01:00:00 17 4 Sudeste 7 Sudeste 0 -- -- 73
2019-10-09 00:00:00 18.1 2 Sur 4 Sur 0 -- -- 65
2019-10-08 23:00:00 19.2 4 Sur 5 Sudoeste 0 -- -- 60
2019-10-08 22:00:00 20.3 0 Calma 6 Este 0 -- -- 53
2019-10-08 21:00:00 21.6 4 Nordeste 8 Este 0 -- -- 48
2019-10-08 20:00:00 23.7 5 Nordeste 13 Nordeste 0 -- -- 42
2019-10-08 19:00:00 26.3 8 Nordeste 14 Nordeste 0 -- -- 37
2019-10-08 18:00:00 27.2 5 Nordeste 21 Nordeste 0 -- -- 35
2019-10-08 17:00:00 28.2 13 Nordeste 22 Nordeste 0 -- -- 33
2019-10-08 16:00:00 29.7 4 Sudeste 11 Sudeste 0 -- -- 30
2019-10-08 15:00:00 30.2 4 Norte 12 Norte 0 -- -- 29
2019-10-08 14:00:00 28.4 6 Este 13 Sudeste 0 -- -- 33
2019-10-08 13:00:00 27.8 6 Sur 15 Sudeste 0 -- -- 34
2019-10-08 12:00:00 26.6 5 Sudeste 15 Sur 0 -- -- 38
2019-10-08 11:00:00 24.7 5 Sur 13 Sur 0 -- -- 42
2019-10-08 10:00:00 21.3 3 Sur 6 Sudeste 0 -- -- 48
2019-10-08 09:00:00 14.4 0 Calma 6 Oeste 0 -- -- 64
2019-10-08 08:00:00 12.3 0 Calma 5 Sudoeste 0 -- -- 71
2019-10-08 07:00:00 12.3 0 Calma 4 Este 0 -- -- 71
2019-10-08 06:00:00 12.2 0 Calma 8 Sudoeste 0 -- -- 72
2019-10-08 05:00:00 13 0 Calma 5 Sudeste 0 -- -- 70
2019-10-08 04:00:00 13.9 3 Oeste 6 Sudoeste 0 -- -- 65
2019-10-08 03:00:00 14.4 0 Calma 15 Sudoeste 0 -- -- 63
2019-10-08 02:00:00 16 0 Calma 4 Sudoeste 0 -- -- 59
2019-10-08 01:00:00 17.1 3 Nordeste 7 Sudoeste 0 -- -- 55
2019-10-08 00:00:00 18.2 0 Calma 9 Nordeste 0 -- -- 51
2019-10-07 23:00:00 18.5 0 Calma 13 Norte 0 -- -- 50
2019-10-07 22:00:00 19.6 9 Norte 13 Norte 0 -- -- 47
2019-10-07 21:00:00 20.2 0 Calma 13 Norte 0 -- -- 44
2019-10-07 20:00:00 22.3 4 Norte 13 Norte 0 -- -- 38
2019-10-07 19:00:00 24.6 6 Norte 22 Norte 0 -- -- 34
2019-10-07 18:00:00 25.2 7 Norte 19 Nordeste 0 -- -- 33
2019-10-07 17:00:00 25.3 9 Norte 23 Norte 0 -- -- 32
2019-10-07 16:00:00 25.9 9 Nordeste 28 Nordeste 0 -- -- 31
2019-10-07 15:00:00 25.3 11 Nordeste 24 Nordeste 0 -- -- 31
2019-10-07 14:00:00 24.7 14 Nordeste 24 Norte 0 -- -- 32
2019-10-07 13:00:00 24.5 9 Norte 23 Nordeste 0 -- -- 32
2019-10-07 12:00:00 22.8 13 Nordeste 22 Nordeste 0 -- -- 36
2019-10-07 11:00:00 22.7 0 Calma 3 Sur 0 -- -- 39
2019-10-07 10:00:00 17.6 2 Sur 4 Sudeste 0 -- -- 48
2019-10-07 09:00:00 10.7 2 Sudeste 4 Sudeste 0 -- -- 70
2019-10-07 08:00:00 10.5 3 Sudoeste 5 Sudoeste 0 -- -- 70
2019-10-07 07:00:00 10.3 0 Calma 4 Sudoeste 0 -- -- 72
2019-10-07 06:00:00 11.2 0 Calma 4 Este 0 -- -- 68
2019-10-07 05:00:00 11.4 0 Calma 3 Sur 0 -- -- 70
2019-10-07 04:00:00 12.4 0 Calma 2 Sur 0 -- -- 67
2019-10-07 03:00:00 12.9 0 Calma 6 Sudoeste 0 -- -- 64
2019-10-07 02:00:00 14.3 0 Calma 4 Este 0 -- -- 61
2019-10-07 01:00:00 14.7 0 Calma 2 Sur 0 -- -- 58
2019-10-07 00:00:00 15.6 0 Calma 8 Sudoeste 0 -- -- 55
2019-10-06 23:00:00 17.2 0 Calma 2 Sudoeste 0 -- -- 51
2019-10-06 22:00:00 18.8 0 Calma 3 Norte 0 -- -- 40
2019-10-06 21:00:00 20.2 0 Calma 5 Norte 0 -- -- 38
2019-10-06 20:00:00 22.7 2 Noroeste 11 Norte 0 -- -- 33
2019-10-06 19:00:00 24.9 5 Noroeste 15 Noroeste 0 -- -- 29
2019-10-06 18:00:00 26.3 4 Noroeste 17 Noroeste 0 -- -- 28
2019-10-06 17:00:00 26.2 6 Noroeste 15 Norte 0 -- -- 29
2019-10-06 16:00:00 27.6 5 Noroeste 15 Noroeste 0 -- -- 29
2019-10-06 15:00:00 26.3 3 Nordeste 21 Norte 0 -- -- 32
2019-10-06 14:00:00 26.5 4 Oeste 17 Noroeste 0 -- -- 34
2019-10-06 13:00:00 25.2 6 Noroeste 15 Norte 0 -- -- 36
2019-10-06 12:00:00 24.3 5 Norte 16 Sudoeste 0 -- -- 40
2019-10-06 11:00:00 21.8 2 Sudoeste 4 Sudoeste 0 -- -- 46
2019-10-06 10:00:00 17.5 2 Sur 4 Este 0 -- -- 54
2019-10-06 09:00:00 11.7 0 Calma 4 Sudeste 0 -- -- 72
2019-10-06 08:00:00 10.2 0 Calma 3 Sur 0 -- -- 76
2019-10-06 07:00:00 10.8 2 Sudeste 4 Sur -- -- -- 74
2019-10-06 06:00:00 10.9 0 Calma 4 Sur 0 -- -- 73
2019-10-06 05:00:00 11.6 2 Sudeste 4 Sur 0 -- -- 71
2019-10-06 04:00:00 12.2 0 Calma 4 Sudeste 0 -- -- 68
2019-10-06 03:00:00 13.1 0 Calma 4 Sudeste 0 -- -- 65
2019-10-06 02:00:00 13.3 2 Sudeste 4 Sudeste 0 -- -- 65
2019-10-06 01:00:00 14.3 2 Sudeste 4 Sudeste 0 -- -- 61
2019-10-06 00:00:00 15.4 2 Este 5 Sudoeste 0 -- -- 57
2019-10-05 23:00:00 17.1 0 Calma 2 Sudoeste 0 -- -- 50
2019-10-05 22:00:00 19.1 0 Calma 5 Noroeste 0 -- -- 43
2019-10-05 21:00:00 20.3 4 Norte 9 Noroeste 0 -- -- 40
2019-10-05 20:00:00 22.8 2 Noroeste 14 Noroeste 0 -- -- 35
2019-10-05 19:00:00 25 5 Noroeste 18 Noroeste 0 -- -- 32
2019-10-05 18:00:00 26.2 8 Noroeste 24 Oeste 0 -- -- 29
2019-10-05 17:00:00 27 5 Noroeste 22 Oeste 0 -- -- 30
2019-10-05 16:00:00 28.1 10 Oeste 19 Sudoeste 0 -- -- 27
2019-10-05 15:00:00 28.3 7 Oeste 20 Oeste 0 -- -- 28
2019-10-05 14:00:00 27.2 5 Sudoeste 15 Oeste 0 -- -- 32
2019-10-05 13:00:00 25.2 4 Norte 13 Oeste 0 -- -- 36
2019-10-05 12:00:00 25.5 4 Noroeste 10 Oeste 0 -- -- 35
2019-10-05 11:00:00 21.9 3 Sudoeste 6 Sur 0 -- -- 47
2019-10-05 10:00:00 18 3 Sudeste 5 Sudeste 0 -- -- 54
2019-10-05 09:00:00 11.9 2 Sudeste 5 Sudeste 0 -- -- 69
2019-10-05 08:00:00 10.9 2 Sudeste 4 Sudeste 0 -- -- 70
2019-10-05 07:00:00 10.8 2 Sudeste 4 Sudeste 0 -- -- 69
2019-10-05 06:00:00 11.1 2 Sudeste 4 Sudeste 0 -- -- 66
2019-10-05 05:00:00 11.2 0 Calma 4 Sudeste 0 -- -- 66
2019-10-05 04:00:00 12.1 0 Calma 2 Sudeste 0 -- -- 64
2019-10-05 03:00:00 12.4 0 Calma 4 Sudeste 0 -- -- 63
2019-10-05 02:00:00 13.3 0 Calma 4 Sudeste 0 -- -- 61
2019-10-05 01:00:00 14.5 0 Calma 5 Sudeste 0 -- -- 56
2019-10-05 00:00:00 16 0 Calma 4 Sudeste 0 -- -- 52
2019-10-04 23:00:00 16.9 2 Sur 4 Sudoeste 0 -- -- 48
2019-10-04 22:00:00 18.7 3 Sudoeste 9 Sudoeste 0 -- -- 40
2019-10-04 21:00:00 20.8 0 Calma 7 Noroeste 0 -- -- 34
2019-10-04 20:00:00 23.4 3 Noroeste 15 Noroeste 0 -- -- 29
2019-10-04 19:00:00 25.9 6 Noroeste 15 Oeste 0 -- -- 26
2019-10-04 18:00:00 27.1 7 Noroeste 18 Oeste 0 -- -- 25
2019-10-04 17:00:00 28 8 Oeste 17 Oeste 0 -- -- 24
2019-10-04 16:00:00 28.6 8 Noroeste 18 Oeste 0 -- -- 24
2019-10-04 15:00:00 28 5 Noroeste 16 Noroeste 0 -- -- 24
2019-10-04 14:00:00 27.4 7 Oeste 15 Oeste 0 -- -- 26
2019-10-04 13:00:00 26.4 6 Oeste 14 Oeste 0 -- -- 29
2019-10-04 12:00:00 24.9 5 Oeste 12 Oeste 0 -- -- 36
2019-10-04 11:00:00 20.7 5 Sudoeste 10 Sudoeste 0 -- -- 48
2019-10-04 10:00:00 17.6 2 Sur 6 Sudeste 0 -- -- 54
2019-10-04 09:00:00 11.6 2 Sudeste 4 Sudeste 0 -- -- 75
2019-10-04 08:00:00 9.9 2 Sudeste 5 Sudeste 0 -- -- 78
2019-10-04 07:00:00 9.8 0 Calma 5 Sudeste 0 -- -- 79
2019-10-04 06:00:00 10.1 2 Sudeste 5 Sudeste 0 -- -- 77
2019-10-04 05:00:00 10.7 3 Sudeste 12 Sudeste 0 -- -- 75
2019-10-04 04:00:00 10.7 2 Sudeste 5 Este 0 -- -- 75
2019-10-04 03:00:00 11.1 2 Sudeste 5 Sudeste 0 -- -- 73
2019-10-04 02:00:00 11.4 0 Calma 4 Sudeste 0 -- -- 69
2019-10-04 01:00:00 12.3 0 Calma 4 Sudeste 0 -- -- 63
2019-10-04 00:00:00 13.6 3 Sudeste 7 Sudoeste 0 -- -- 58
2019-10-03 23:00:00 14.9 4 Sudoeste 10 Nordeste 0 -- -- 53
2019-10-03 22:00:00 16.1 0 Calma 4 Sudeste 0 -- -- 49
2019-10-03 21:00:00 18.4 0 Calma 4 Noroeste 0 -- -- 39
2019-10-03 20:00:00 20.7 2 Noroeste 14 Noroeste 0 -- -- 33
2019-10-03 19:00:00 22.6 5 Noroeste 19 Oeste 0 -- -- 29
2019-10-03 18:00:00 23.5 8 Noroeste 21 Noroeste 0 -- -- 27
2019-10-03 17:00:00 24.4 7 Noroeste 19 Noroeste 0 -- -- 28
2019-10-03 16:00:00 24.1 8 Norte 19 Norte 0 -- -- 27
2019-10-03 15:00:00 23.3 8 Norte 21 Norte -- -- -- 28
2019-10-03 14:00:00 23.6 6 Noroeste 20 Oeste 0 -- -- 29
2019-10-03 13:00:00 22.8 9 Noroeste 24 Noroeste 0 -- -- 33
2019-10-03 12:00:00 21.7 6 Noroeste 14 Noroeste 0 -- -- 38
2019-10-03 11:00:00 18 2 Sur 4 Sur 0 -- -- 50
2019-10-03 10:00:00 14.5 2 Sudeste 4 Sudeste 0 -- -- 59
2019-10-03 09:00:00 9.9 0 Calma 4 Sudoeste 0 -- -- 74
2019-10-03 08:00:00 8.4 0 Calma 2 Este 0 -- -- 80
2019-10-03 07:00:00 8.9 0 Calma 4 Sudeste 0 -- -- 78
2019-10-03 06:00:00 9.2 0 Calma 4 Sudeste 0 -- -- 74
2019-10-03 05:00:00 9.2 0 Calma 3 Sudoeste 0 -- -- 72
2019-10-03 04:00:00 9.9 0 Calma 5 Sudoeste 0 -- -- 68
2019-10-03 03:00:00 10.7 0 Calma 4 Oeste 0 -- -- 65
2019-10-03 02:00:00 11.1 0 Calma 4 Sudoeste 0 -- -- 63
2019-10-03 01:00:00 12.1 0 Calma 3 Nordeste 0 -- -- 62
2019-10-03 00:00:00 13 2 Sudoeste 4 Sudoeste 0 -- -- 55
2019-10-02 23:00:00 13.8 0 Calma 4 Sudeste 0 -- -- 51
2019-10-02 22:00:00 15.6 0 Calma 5 Noroeste 0 -- -- 44
2019-10-02 21:00:00 16.3 3 Nordeste 13 Nordeste 0 -- -- 42
2019-10-02 20:00:00 18.4 6 Norte 18 Norte 0 -- -- 36
2019-10-02 19:00:00 20.3 10 Norte 24 Nordeste -- -- -- 34
2019-10-02 18:00:00 21 14 Nordeste 28 Nordeste 0 -- -- 33
2019-10-02 17:00:00 21.7 12 Norte 24 Nordeste 0 -- -- 34
2019-10-02 16:00:00 21.9 11 Norte 24 Norte 0 -- -- 35
2019-10-02 15:00:00 21.9 11 Norte 21 Norte 0 -- -- 34
2019-10-02 14:00:00 21.6 8 Norte 21 Norte 0 -- -- 35
2019-10-02 13:00:00 20.4 7 Norte 20 Norte 0 -- -- 43
2019-10-02 12:00:00 19.9 6 Norte 18 Norte 0 -- -- 47
2019-10-02 11:00:00 18.5 8 Norte 15 Noroeste 0 -- -- 51
2019-10-02 10:00:00 17.1 0 Calma 5 Norte 0 -- -- 59
2019-10-02 09:00:00 11.2 0 Calma 3 Este 0 -- -- 84
2019-10-02 08:00:00 9.9 0 Calma 6 Este 0 -- -- 85
2019-10-02 07:00:00 10.3 0 Calma 4 Sur 0 -- -- 83
2019-10-02 06:00:00 11 0 Calma 4 Sudeste 0 -- -- 82
2019-10-02 05:00:00 12 0 Calma 2 Sudeste 0 -- -- 77
2019-10-02 04:00:00 12.8 0 Calma 3 Este 0 -- -- 74
2019-10-02 03:00:00 13.9 0 Calma 8 Noroeste 0 -- -- 70
2019-10-02 02:00:00 14.7 2 Noroeste 10 Noroeste 0 -- -- 67
2019-10-02 01:00:00 15.8 3 Noroeste 10 Noroeste 0 -- -- 62
2019-10-02 00:00:00 17.3 4 Noroeste 17 Noroeste 0 -- -- 56
2019-10-01 23:00:00 18.4 10 Noroeste 24 Noroeste 0 -- -- 52
2019-10-01 22:00:00 19.2 8 Noroeste 19 Noroeste 0 -- -- 52
2019-10-01 21:00:00 20.2 9 Noroeste 18 Noroeste 0 -- -- 40
2019-10-01 20:00:00 21.8 9 Noroeste 28 Noroeste 0 -- -- 28
2019-10-01 19:00:00 23.7 15 Noroeste 33 Noroeste 0 -- -- 26
2019-10-01 18:00:00 25.4 14 Noroeste 32 Sudoeste 0 -- -- 26
2019-10-01 17:00:00 25.9 13 Noroeste 35 Noroeste 0 -- -- 27
2019-10-01 16:00:00 26.9 11 Noroeste 30 Oeste 0 -- -- 25
2019-10-01 15:00:00 27 13 Noroeste 31 Oeste 0 -- -- 26
2019-10-01 14:00:00 27 13 Oeste 29 Oeste 0 -- -- 29
2019-10-01 13:00:00 26.5 10 Noroeste 23 Noroeste 0 -- -- 29
2019-10-01 12:00:00 25.1 12 Noroeste 24 Noroeste 0 -- -- 33
2019-10-01 11:00:00 23.4 10 Oeste 17 Oeste 0 -- -- 40
2019-10-01 10:00:00 19.6 4 Sudoeste 8 Oeste 0 -- -- 52
2019-10-01 09:00:00 16.1 2 Sudeste 5 Sur 0 -- -- 59
2019-10-01 08:00:00 13.5 2 Sur 6 Sudoeste 0 -- -- 67
2019-10-01 07:00:00 13.5 3 Sudeste 5 Sudeste 0 -- -- 68
2019-10-01 06:00:00 13.8 2 Sudeste 5 Sudeste 0 -- -- 66
2019-10-01 05:00:00 14 0 Calma 4 Sur 0 -- -- 65
2019-10-01 04:00:00 14.7 2 Sudeste 7 Sudeste 0 -- -- 62
2019-10-01 03:00:00 15.3 3 Sudeste 7 Sudeste 0 -- -- 57
2019-10-01 02:00:00 15.6 3 Sudeste 5 Sudeste 0 -- -- 56
2019-10-01 01:00:00 16.4 3 Sudeste 6 Este 0 -- -- 53
2019-10-01 00:00:00 17.4 2 Este 4 Sudeste 0 -- -- 50
2019-09-30 23:00:00 18.3 3 Sudeste 5 Sudeste 0 -- -- 49
2019-09-30 22:00:00 20.6 2 Sur 8 Sudoeste 0 -- -- 40
2019-09-30 21:00:00 23.2 0 Calma 13 Noroeste 0 -- -- 31
2019-09-30 20:00:00 25.2 4 Noroeste 14 Noroeste 0 -- -- 29
2019-09-30 19:00:00 27.6 5 Oeste 13 Oeste 0 -- -- 25
2019-09-30 18:00:00 28.8 8 Oeste 19 Sudoeste 0 -- -- 23
2019-09-30 17:00:00 29.5 6 Sudoeste 22 Oeste 0 -- -- 22
2019-09-30 16:00:00 30.3 8 Oeste 21 Oeste 0 -- -- 20
2019-09-30 15:00:00 29.7 9 Sudoeste 21 Sur 0 -- -- 23
2019-09-30 14:00:00 29.4 5 Sudoeste 17 Sudoeste 0 -- -- 24
2019-09-30 13:00:00 28.4 6 Sur 12 Sur 0 -- -- 27
2019-09-30 12:00:00 28.2 5 Oeste 12 Oeste 0 -- -- 33
2019-09-30 11:00:00 25 3 Sudoeste 5 Sudoeste 0 -- -- 40
2019-09-30 10:00:00 20.4 2 Sudeste 6 Sudeste 0 -- -- 48
2019-09-30 09:00:00 15.3 2 Sudeste 4 Sur 0 -- -- 61
2019-09-30 08:00:00 12.3 0 Calma 5 Sudeste 0 -- -- 69
2019-09-30 07:00:00 12 0 Calma 3 Sur 0 -- -- 71
2019-09-30 06:00:00 12.5 0 Calma 4 Sur 0 -- -- 70
2019-09-30 05:00:00 13.3 0 Calma 3 Sudeste 0 -- -- 67
2019-09-30 04:00:00 14.4 0 Calma 4 Nordeste 0 -- -- 62
2019-09-30 03:00:00 14.8 0 Calma 4 Sudeste 0 -- -- 58
2019-09-30 02:00:00 14.9 0 Calma 6 Sudeste 0 -- -- 58
2019-09-30 01:00:00 15.7 0 Calma 4 Sur 0 -- -- 57
2019-09-30 00:00:00 16.9 0 Calma 4 Sudeste 0 -- -- 50
2019-09-29 23:00:00 18.5 0 Calma 10 Este 0 -- -- 49
2019-09-29 22:00:00 20.1 0 Calma 4 Sudoeste 0 -- -- 41
2019-09-29 21:00:00 22.3 2 Norte 5 Norte 0 -- -- 32
2019-09-29 20:00:00 25 0 Calma 12 Norte 0 -- -- 29
2019-09-29 19:00:00 27.5 8 Norte 21 Noroeste 0 -- -- 24
2019-09-29 18:00:00 28.6 8 Norte 26 Noroeste 0 -- -- 23
2019-09-29 17:00:00 29.5 9 Noroeste 27 Oeste 0 -- -- 22
2019-09-29 16:00:00 30.2 10 Noroeste 29 Oeste 0 -- -- 21
2019-09-29 15:00:00 30.2 10 Noroeste 26 Oeste 0 -- -- 19
2019-09-29 14:00:00 29.7 12 Oeste 24 Oeste 0 -- -- 21
2019-09-29 13:00:00 28.7 13 Oeste 24 Noroeste 0 -- -- 25
2019-09-29 12:00:00 27.2 11 Oeste 21 Oeste 0 -- -- 28
2019-09-29 11:00:00 24.1 4 Sudoeste 8 Sudoeste 0 -- -- 40
2019-09-29 10:00:00 20.2 3 Sur 5 Sudeste 0 -- -- 49
2019-09-29 09:00:00 15.2 0 Calma 7 Sudeste 0 -- -- 61
2019-09-29 08:00:00 12.3 0 Calma 5 Sudeste 0 -- -- 67
2019-09-29 07:00:00 12.9 2 Sudeste 4 Sudeste 0 -- -- 65
2019-09-29 06:00:00 13.6 3 Sudeste 9 Sur 0 -- -- 64
2019-09-29 05:00:00 14 3 Sudeste 5 Sudeste 0 -- -- 65
2019-09-29 04:00:00 14.1 2 Sudeste 5 Sur 0 -- -- 69
2019-09-29 03:00:00 14.7 0 Calma 5 Sudeste 0 -- -- 72
2019-09-29 02:00:00 15.7 0 Calma 5 Sudeste 0 -- -- 72
2019-09-29 01:00:00 16.9 2 Sur 4 Sur 0 -- -- 68
2019-09-29 00:00:00 17.4 0 Calma 3 Sur 0 -- -- 65
2019-09-28 23:00:00 18.8 0 Calma 6 Sudoeste 0 -- -- 56
2019-09-28 22:00:00 20.6 0 Calma 10 Este 0 -- -- 47
2019-09-28 21:00:00 22.1 4 Nordeste 10 Este 0 -- -- 43
2019-09-28 20:00:00 24.5 4 Nordeste 13 Este 0 -- -- 37
2019-09-28 19:00:00 26.5 8 Nordeste 19 Nordeste 0 -- -- 32
2019-09-28 18:00:00 27.5 9 Nordeste 17 Nordeste 0 -- -- 30
2019-09-28 17:00:00 28 10 Nordeste 20 Nordeste 0 -- -- 29
2019-09-28 16:00:00 29.5 5 Sudoeste 16 Sur 0 -- -- 24
2019-09-28 15:00:00 29.2 5 Sudoeste 13 Sudoeste 0 -- -- 25
2019-09-28 14:00:00 29.2 2 Noroeste 14 Sur 0 -- -- 25
2019-09-28 13:00:00 28.7 5 Oeste 12 Oeste 0 -- -- 28
2019-09-28 12:00:00 26.9 4 Sur 9 Sudoeste 0 -- -- 30
2019-09-28 11:00:00 23.4 5 Sur 9 Sur 0 -- -- 41
2019-09-28 10:00:00 19.7 2 Sur 5 Sudeste 0 -- -- 50
2019-09-28 09:00:00 14.5 0 Calma 3 Sur 0 -- -- 66
2019-09-28 08:00:00 11.7 0 Calma 3 Sur 0 -- -- 74
2019-09-28 07:00:00 12.1 0 Calma 3 Sur 0 -- -- 72
2019-09-28 06:00:00 12.4 0 Calma 3 Este 0 -- -- 71
2019-09-28 05:00:00 13.1 0 Calma 2 Sudeste 0 -- -- 69
2019-09-28 04:00:00 14.1 0 Calma 4 Este 0 -- -- 64
2019-09-28 03:00:00 14.4 0 Calma 5 Sudeste 0 -- -- 63
2019-09-28 02:00:00 15.3 2 Sudeste 4 Sudeste 0 -- -- 60
2019-09-28 01:00:00 15.8 3 Sudeste 7 Sudeste 0 -- -- 62
2019-09-28 00:00:00 17 0 Calma 7 Sudeste 0 -- -- 59
2019-09-27 23:00:00 17.8 0 Calma 6 Sudoeste 0 -- -- 59
2019-09-27 22:00:00 19.6 0 Calma 2 Norte 0 -- -- 51
2019-09-27 21:00:00 21.7 0 Calma 6 Norte 0 -- -- 40
2019-09-27 20:00:00 24.2 2 Noroeste 14 Noroeste 0 -- -- 34
2019-09-27 19:00:00 26.5 5 Noroeste 22 Noroeste 0 -- -- 30
2019-09-27 18:00:00 27.5 9 Noroeste 25 Noroeste 0 -- -- 26
2019-09-27 17:00:00 28.3 10 Oeste 23 Oeste 0 -- -- 27
2019-09-27 16:00:00 28.9 9 Oeste 21 Oeste 0 -- -- 26
2019-09-27 15:00:00 28.6 11 Oeste 26 Oeste 0 -- -- 28
2019-09-27 14:00:00 28.3 10 Oeste 21 Oeste 0 -- -- 28
2019-09-27 13:00:00 27.5 9 Oeste 19 Oeste 0 -- -- 31
2019-09-27 12:00:00 25.6 7 Sudoeste 13 Sudoeste 0 -- -- 37
2019-09-27 11:00:00 22.1 5 Sudoeste 9 Sudoeste 0 -- -- 48
2019-09-27 10:00:00 20.1 2 Sudeste 4 Sudeste 0 -- -- 52
2019-09-27 09:00:00 14.3 2 Sudeste 4 Sudeste 0 -- -- 71
2019-09-27 08:00:00 12 2 Sudeste 3 Sudeste 0 -- -- 78
2019-09-27 07:00:00 12.2 0 Calma 3 Sudeste 0 -- -- 78
2019-09-27 06:00:00 12.9 0 Calma 3 Sur 0 -- -- 77
2019-09-27 05:00:00 13.2 0 Calma 3 Sudeste 0 -- -- 77
2019-09-27 04:00:00 14 0 Calma 3 Sudeste 0 -- -- 74
2019-09-27 03:00:00 14.8 0 Calma 5 Sudeste 0 -- -- 72
2019-09-27 02:00:00 15.7 0 Calma 6 Sur 0 -- -- 71
2019-09-27 01:00:00 16.3 2 Sur 4 Sudeste 0 -- -- 70
2019-09-27 00:00:00 16.9 0 Calma 3 Este 0 -- -- 69
2019-09-26 23:00:00 18.2 2 Sudoeste 5 Sudoeste 0 -- -- 63
2019-09-26 22:00:00 19.9 0 Calma 5 Este 0 -- -- 56
2019-09-26 21:00:00 21.1 4 Nordeste 10 Nordeste 0 -- -- 51
2019-09-26 20:00:00 23.6 5 Nordeste 12 Nordeste 0 -- -- 43
2019-09-26 19:00:00 26.4 5 Noroeste 13 Oeste 0 -- -- 34
2019-09-26 18:00:00 27.2 5 Noroeste 17 Oeste 0 -- -- 29
2019-09-26 17:00:00 28 8 Oeste 20 Noroeste 0 -- -- 30
2019-09-26 16:00:00 28.7 5 Oeste 21 Oeste 0 -- -- 31
2019-09-26 15:00:00 27.5 5 Sur 13 Sudoeste 0 -- -- 33
2019-09-26 14:00:00 26.4 7 Sudoeste 14 Sudoeste 0 -- -- 34
2019-09-26 13:00:00 26.4 3 Oeste 11 Sudoeste 0 -- -- 36
2019-09-26 12:00:00 25.3 3 Sur 13 Sur 0 -- -- 37
2019-09-26 11:00:00 22.8 6 Sur 10 Sur -- -- -- 47
2019-09-26 10:00:00 20.8 0 Calma 3 Sudoeste 0 -- -- 54
2019-09-26 09:00:00 14.9 0 Calma 2 Sudoeste 0 -- -- 71
2019-09-26 08:00:00 11.8 0 Calma 3 Sudoeste 0 -- -- 83
2019-09-26 07:00:00 11.9 0 Calma 2 Sur 0 -- -- 82
2019-09-26 06:00:00 12 0 Calma 4 Sudeste 0 -- -- 80
2019-09-26 05:00:00 12.1 2 Sudeste 5 Sudeste 0 -- -- 82
2019-09-26 04:00:00 13.4 2 Sur 3 Sudoeste 0 -- -- 79
2019-09-26 03:00:00 13.7 0 Calma 3 Sudeste 0 -- -- 76
2019-09-26 02:00:00 14 2 Sudeste 4 Sudeste 0 -- -- 74
2019-09-26 01:00:00 14.6 0 Calma 5 Sur 0 -- -- 71
2019-09-26 00:00:00 15.8 0 Calma 3 Sudoeste 0 -- -- 67
2019-09-25 23:00:00 16.8 0 Calma 3 Nordeste 0 -- -- 61
2019-09-25 22:00:00 17.8 2 Nordeste 9 Nordeste 0 -- -- 57
2019-09-25 21:00:00 18.4 3 Nordeste 7 Norte 0 -- -- 60
2019-09-25 20:00:00 20.7 6 Nordeste 15 Norte 0 -- -- 51
2019-09-25 19:00:00 22.8 7 Noroeste 18 Norte 0 -- -- 38
2019-09-25 18:00:00 23.5 9 Noroeste 20 Noroeste 0 -- -- 37
2019-09-25 17:00:00 24.4 9 Noroeste 24 Norte 0 -- -- 38
2019-09-25 16:00:00 24.6 11 Noroeste 24 Noroeste 0 -- -- 35
2019-09-25 15:00:00 24.6 7 Noroeste 21 Noroeste 0 -- -- 44
2019-09-25 14:00:00 23.5 8 Noroeste 26 Noroeste 0 -- -- 44
2019-09-25 13:00:00 22.4 9 Oeste 21 Noroeste 0 -- -- 49
2019-09-25 12:00:00 21.3 7 Noroeste 25 Oeste 0 -- -- 58
2019-09-25 11:00:00 19.6 6 Noroeste 18 Noroeste 0 -- -- 67
2019-09-25 10:00:00 17.3 8 Noroeste 18 Noroeste 0 -- -- 81
2019-09-25 09:00:00 16.9 8 Noroeste 21 Noroeste 0 -- -- 86
2019-09-25 08:00:00 16 6 Noroeste 16 Noroeste 0 -- -- 92
2019-09-25 07:00:00 15.8 3 Noroeste 14 Noroeste 0 -- -- 91
2019-09-25 06:00:00 15.7 9 Oeste 16 Noroeste 0 -- -- 88
2019-09-25 05:00:00 15.5 6 Noroeste 14 Noroeste 0 -- -- 84
2019-09-25 04:00:00 16 8 Noroeste 14 Oeste 0 -- -- 79
2019-09-25 03:00:00 15.5 3 Oeste 9 Oeste 0 -- -- 74
2019-09-25 02:00:00 16.6 5 Oeste 11 Oeste 0 -- -- 66
2019-09-25 01:00:00 17.4 6 Oeste 12 Oeste 0 -- -- 60
2019-09-25 00:00:00 18.6 6 Noroeste 19 Noroeste 0 -- -- 52
2019-09-24 23:00:00 18.9 8 Oeste 17 Noroeste 0 -- -- 49
2019-09-24 22:00:00 20.3 9 Noroeste 19 Noroeste 0 -- -- 44
2019-09-24 21:00:00 21.1 5 Noroeste 13 Norte 0 -- -- 43
2019-09-24 20:00:00 23.4 6 Noroeste 22 Noroeste 0 -- -- 37
2019-09-24 19:00:00 25.4 11 Noroeste 27 Noroeste 0 -- -- 31
2019-09-24 18:00:00 26.3 13 Noroeste 28 Oeste 0 -- -- 30
2019-09-24 17:00:00 26.8 11 Noroeste 23 Oeste 0 -- -- 30
2019-09-24 16:00:00 27.3 12 Oeste 26 Oeste 0 -- -- 31
2019-09-24 15:00:00 26.6 11 Noroeste 25 Noroeste 0 -- -- 31
2019-09-24 14:00:00 26.1 12 Noroeste 24 Oeste 0 -- -- 34
2019-09-24 13:00:00 25.1 11 Oeste 22 Oeste 0 -- -- 37
2019-09-24 12:00:00 23.8 12 Oeste 23 Sudoeste 0 -- -- 39
2019-09-24 11:00:00 21.9 9 Oeste 17 Oeste 0 -- -- 48
2019-09-24 10:00:00 18.5 0 Calma 4 Sudeste 0 -- -- 60
2019-09-24 09:00:00 13.8 0 Calma 3 Sudeste 0 -- -- 83
2019-09-24 08:00:00 10.1 0 Calma 3 Sur 0 -- -- 92
2019-09-24 07:00:00 10.5 0 Calma 2 Sudeste 0 -- -- 93
2019-09-24 06:00:00 10.9 0 Calma 3 Sudeste 0 -- -- 91
2019-09-24 05:00:00 11.6 0 Calma 3 Sudeste 0 -- -- 91
2019-09-24 04:00:00 12 0 Calma 2 Sur 0 -- -- 90
2019-09-24 03:00:00 12.5 0 Calma 4 Sudeste 0 -- -- 88
2019-09-24 02:00:00 12.8 0 Calma 4 Sudeste 0 -- -- 87
2019-09-24 01:00:00 13.3 0 Calma 3 Este 0 -- -- 85
2019-09-24 00:00:00 14.2 2 Este 4 Este 0 -- -- 83
2019-09-23 23:00:00 15.3 0 Calma 4 Sudoeste 0 -- -- 81
2019-09-23 22:00:00 16.5 0 Calma 5 Nordeste 0 -- -- 72
2019-09-23 21:00:00 17.3 3 Nordeste 6 Nordeste 0 -- -- 67
2019-09-23 20:00:00 19.6 4 Nordeste 13 Nordeste 0 -- -- 57
2019-09-23 19:00:00 22.4 5 Noroeste 14 Noroeste 0 -- -- 44
2019-09-23 18:00:00 22.3 3 Norte 19 Norte 0 -- -- 46
2019-09-23 17:00:00 23.1 6 Norte 18 Nordeste 0 -- -- 45
2019-09-23 16:00:00 22.5 4 Nordeste 9 Nordeste 0 -- -- 45
2019-09-23 15:00:00 22.1 4 Este 15 Sudoeste 0 -- -- 46
2019-09-23 14:00:00 22.2 5 Oeste 12 Sur 0 -- -- 46
2019-09-23 13:00:00 20.2 5 Sur 12 Sur 0 -- -- 53
2019-09-23 12:00:00 20.1 4 Sudeste 6 Sudeste 0 -- -- 52
2019-09-23 11:00:00 19.7 0 Calma 5 Sur 0 -- -- 58
2019-09-23 10:00:00 15.7 0 Calma 4 Sudeste 0 -- -- 71
2019-09-23 09:00:00 10.7 2 Sur 5 Sudeste 0 -- -- 92
2019-09-23 08:00:00 8.8 2 Este 5 Sudeste 0 -- -- 95
2019-09-23 07:00:00 8.9 0 Calma 3 Este 0 -- -- 94
2019-09-23 06:00:00 9.4 0 Calma 2 Sudeste 0 -- -- 92
2019-09-23 05:00:00 10 0 Calma 4 Este 0 -- -- 92
2019-09-23 04:00:00 10.4 0 Calma 4 Sudeste 0 -- -- 90
2019-09-23 03:00:00 11.2 0 Calma 6 Norte 0 -- -- 88
2019-09-23 02:00:00 11.8 2 Norte 5 Norte 0 -- -- 86
2019-09-23 01:00:00 12.4 0 Calma 2 Sudeste 0 -- -- 85
2019-09-23 00:00:00 13.5 0 Calma 14 Norte 0 -- -- 78
2019-09-22 23:00:00 14.6 6 Noroeste 14 Noroeste 0 -- -- 73
2019-09-22 22:00:00 15 6 Noroeste 13 Oeste 0 -- -- 69
2019-09-22 21:00:00 15.8 5 Oeste 18 Noroeste 0 -- -- 66
2019-09-22 20:00:00 18.1 10 Noroeste 32 Oeste 0 -- -- 63
2019-09-22 19:00:00 19.4 13 Noroeste 29 Noroeste 0 -- -- 65
2019-09-22 18:00:00 20.3 12 Noroeste 29 Noroeste 0 -- -- 66
2019-09-22 17:00:00 20.1 13 Noroeste 33 Oeste 0 -- -- 71
2019-09-22 16:00:00 21.9 18 Oeste 32 Oeste 0 -- -- 62
2019-09-22 15:00:00 20.9 19 Oeste 36 Oeste 0 -- -- 70
2019-09-22 14:00:00 20.6 15 Oeste 28 Oeste 0 -- -- 71
2019-09-22 13:00:00 19 16 Oeste 28 Oeste 0 -- -- 78
2019-09-22 12:00:00 18.8 17 Oeste 30 Oeste 0 -- -- 79
2019-09-22 11:00:00 17.3 15 Oeste 29 Oeste 0 -- -- 85
2019-09-22 10:00:00 16.5 11 Oeste 19 Oeste 0 -- -- 90
2019-09-22 09:00:00 15.5 4 Sudoeste 12 Sudoeste 0 -- -- 93
2019-09-22 08:00:00 15 8 Oeste 16 Oeste 0 -- -- 94
2019-09-22 07:00:00 14.4 6 Oeste 16 Sudoeste 0 -- -- 95
2019-09-22 06:00:00 14.7 9 Oeste 15 Oeste 0 -- -- 94
2019-09-22 05:00:00 14.9 8 Oeste 18 Oeste 0 -- -- 93
2019-09-22 04:00:00 15.2 8 Oeste 14 Oeste 0 -- -- 91
2019-09-22 03:00:00 15.1 2 Sudoeste 9 Sudoeste 0 -- -- 94
2019-09-22 02:00:00 15.3 3 Sudoeste 9 Sudoeste 0 -- -- 92
2019-09-22 01:00:00 15.6 3 Oeste 16 Oeste 0 -- -- 90
2019-09-22 00:00:00 16.2 8 Oeste 13 Oeste 0 -- -- 89
2019-09-21 23:00:00 16.6 6 Oeste 10 Sudoeste 0 -- -- 89
2019-09-21 22:00:00 16.9 2 Sudoeste 10 Oeste 0 -- -- 88
2019-09-21 21:00:00 17.5 4 Noroeste 15 Noroeste 0.2 -- -- 84
2019-09-21 20:00:00 18.9 10 Oeste 26 Oeste 0 -- -- 75
2019-09-21 19:00:00 20.6 13 Oeste 27 Oeste 0 -- -- 64
2019-09-21 18:00:00 21.4 14 Oeste 28 Oeste 0 -- -- 62
2019-09-21 17:00:00 21.3 14 Oeste 26 Sudoeste 0 -- -- 65
2019-09-21 16:00:00 21.3 15 Oeste 31 Oeste 0 -- -- 65
2019-09-21 15:00:00 20.8 9 Oeste 19 Oeste 0 -- -- 69
2019-09-21 14:00:00 20.9 6 Oeste 14 Sudoeste 0 -- -- 70
2019-09-21 13:00:00 20.4 6 Sudoeste 15 Oeste 0 -- -- 71
2019-09-21 12:00:00 19.8 3 Sudoeste 11 Sudoeste 0 -- -- 72
2019-09-21 11:00:00 21.3 4 Sur 7 Sudeste 0 -- -- 67
2019-09-21 10:00:00 17.5 3 Sudoeste 6 Sudeste 0 -- -- 93
2019-09-21 09:00:00 15.3 2 Sudeste 4 Sudeste 0 -- -- 96
2019-09-21 08:00:00 14.3 0 Calma 5 Sudeste 0 -- -- 99
2019-09-21 07:00:00 14.8 0 Calma 7 Este 0 -- -- 98
2019-09-21 06:00:00 15.1 0 Calma 5 Noroeste 0.2 -- -- 98
2019-09-21 05:00:00 15.1 0 Calma 13 Sur 9.8 -- -- 97
2019-09-21 04:00:00 15.7 4 Oeste 8 Sudoeste 5.6 -- -- 96
2019-09-21 03:00:00 15.8 2 Sudoeste 12 Oeste 0 -- -- 96
2019-09-21 02:00:00 15.9 7 Oeste 14 Oeste 0.4 -- -- 96
2019-09-21 01:00:00 15.8 5 Sudoeste 9 Oeste 1.8 -- -- 96
2019-09-21 00:00:00 15.6 4 Sur 17 Sur 5 -- -- 96
2019-09-20 23:00:00 14.7 2 Sudeste 10 Sudeste 0 -- -- 95
2019-09-20 22:00:00 14 3 Sur 9 Sudeste 3.4 -- -- 94
2019-09-20 21:00:00 13.3 3 Sur 23 Sudeste 0.8 -- -- 87
2019-09-20 20:00:00 12.4 5 Sudeste 39 Sudeste 4 -- -- 96
2019-09-20 19:00:00 11.6 26 Sudeste 59 Sudeste 62.4 -- -- 96
2019-09-20 18:00:00 16.9 14 Sudeste 35 Sur 9 -- -- 92
2019-09-20 17:00:00 24.3 13 Sudeste 35 Sudeste 0 -- -- 54
2019-09-20 16:00:00 24.7 16 Sudeste 30 Sudeste 0 -- -- 52
2019-09-20 15:00:00 25.3 13 Sudeste 22 Sudeste 0 -- -- 51
2019-09-20 14:00:00 24.4 10 Sudeste 22 Sudeste 0 -- -- 51
2019-09-20 13:00:00 23.1 11 Sudeste 22 Sudeste 0 -- -- 56
2019-09-20 12:00:00 22.6 9 Sur 23 Sudeste 0 -- -- 57
2019-09-20 11:00:00 20.8 9 Sur 23 Sur 0 -- -- 65
2019-09-20 10:00:00 18.7 10 Sur 22 Sur 0 -- -- 73
2019-09-20 09:00:00 16.8 6 Sudeste 15 Sur 0 -- -- 81
2019-09-20 08:00:00 16.2 6 Sur 16 Sudeste 0 -- -- 84
2019-09-20 07:00:00 16.5 8 Sudeste 19 Sudeste 0 -- -- 84
2019-09-20 06:00:00 16.9 4 Sudeste 10 Sudeste 0 -- -- 78
2019-09-20 05:00:00 16.9 2 Este 8 Sudeste 0 -- -- 78
2019-09-20 04:00:00 17.1 0 Calma 7 Sur 0 -- -- 85
2019-09-20 03:00:00 17 0 Calma 6 Sudeste 0 -- -- 85
2019-09-20 02:00:00 17.3 2 Sudeste 9 Sudeste 0 -- -- 83
2019-09-20 01:00:00 17.8 5 Sudeste 12 Sudeste 0 -- -- 81
2019-09-20 00:00:00 18 2 Sudeste 8 Sudeste 0 -- -- 78